Time;durP1;ratioP1;P1;durP2;ratioP2;P2;SDS_P1;SDS_P2;PMS_P1;PMS_P2;Temp;Humidity;BMP_temperature;BMP_pressure;BME280_temperature;BME280_humidity;BME280_pressure;Samples;Min_cycle;Max_cycle;Signal;HPM_P1;HPM_P2
2020/12/26 00:00:19;;;;;;;3.95;3.65;;;;;;;1.50;100.00;98508.34;4919737;29;20047;-87
2020/12/26 00:02:44;;;;;;;1.33;1.27;;;;;;;1.50;100.00;98513.78;4937003;29;20107;-88
2020/12/26 00:05:10;;;;;;;2.55;2.35;;;;;;;1.52;100.00;98524.28;4919780;29;20139;-89
2020/12/26 00:07:35;;;;;;;2.90;2.75;;;;;;;1.36;100.00;98510.19;4919741;29;20024;-89
2020/12/26 00:10:01;;;;;;;2.00;1.90;;;;;;;1.29;100.00;98502.75;4919676;29;20039;-89
2020/12/26 00:12:26;;;;;;;3.78;3.47;;;;;;;1.40;100.00;98525.38;4919900;29;20186;-89
2020/12/26 00:14:52;;;;;;;2.08;1.73;;;;;;;1.58;100.00;98517.31;4919923;29;20433;-89
2020/12/26 00:17:17;;;;;;;7.32;3.40;;;;;;;1.65;100.00;98530.97;4920052;29;20469;-88
2020/12/26 00:19:43;;;;;;;1.42;1.42;;;;;;;1.63;100.00;98516.94;4919745;29;20043;-89
2020/12/26 00:22:08;;;;;;;2.33;2.13;;;;;;;1.52;100.00;98516.88;4919456;29;20036;-89
2020/12/26 00:24:33;;;;;;;1.48;1.48;;;;;;;1.48;100.00;98518.81;4919549;29;20036;-90
2020/12/26 00:26:59;;;;;;;4.82;2.47;;;;;;;1.38;100.00;98522.28;4919509;29;20145;-89
2020/12/26 00:29:25;;;;;;;1.95;1.90;;;;;;;1.28;100.00;98511.28;4919845;29;20031;-90
2020/12/26 00:31:50;;;;;;;9.45;5.47;;;;;;;1.29;100.00;98521.81;4919453;29;20028;-88
2020/12/26 00:34:16;;;;;;;2.50;2.40;;;;;;;0.81;100.00;98521.06;4920291;29;20035;-90
2020/12/26 00:36:41;;;;;;;11.80;2.85;;;;;;;0.97;100.00;98510.69;4919364;29;20027;-90
2020/12/26 00:39:07;;;;;;;2.13;1.98;;;;;;;0.92;100.00;98519.22;4936320;29;20038;-89
2020/12/26 00:41:32;;;;;;;3.67;3.05;;;;;;;0.94;100.00;98513.41;4919324;29;20037;-89
2020/12/26 00:43:57;;;;;;;2.25;1.85;;;;;;;0.75;100.00;98512.47;4919399;29;20123;-89
2020/12/26 00:46:23;;;;;;;6.95;5.22;;;;;;;0.85;100.00;98515.63;4919352;29;20032;-90
2020/12/26 00:48:49;;;;;;;4.13;3.80;;;;;;;0.85;100.00;98494.66;4918984;29;20071;-88
2020/12/26 00:51:15;;;;;;;3.45;3.13;;;;;;;0.95;100.00;98521.19;4918518;29;20023;-88
2020/12/26 00:53:40;;;;;;;3.63;3.33;;;;;;;1.11;100.00;98512.75;4918980;29;20036;-89
2020/12/26 00:56:06;;;;;;;2.58;2.47;;;;;;;1.25;100.00;98512.84;4919047;29;20024;-90
2020/12/26 00:58:32;;;;;;;1.67;1.58;;;;;;;1.35;100.00;98523.00;4919422;29;20070;-89
2020/12/26 01:00:57;;;;;;;3.13;2.90;;;;;;;1.48;100.00;98512.59;4919020;29;20056;-90
2020/12/26 01:03:22;;;;;;;2.90;2.75;;;;;;;1.50;100.00;98500.19;4919128;29;20044;-90
2020/12/26 01:05:48;;;;;;;1.60;1.52;;;;;;;1.48;100.00;98502.50;4919076;29;20050;-89
2020/12/26 01:08:13;;;;;;;2.70;2.53;;;;;;;1.68;100.00;98518.53;4918868;29;20032;-89
2020/12/26 01:10:39;;;;;;;3.15;2.88;;;;;;;1.58;100.00;98504.47;4919072;29;20034;-88
2020/12/26 01:13:04;;;;;;;1.27;1.27;;;;;;;1.70;100.00;98510.75;4918943;29;20127;-88
2020/12/26 01:15:30;;;;;;;1.80;1.70;;;;;;;1.52;100.00;98473.31;4918949;29;20067;-88
2020/12/26 01:17:55;;;;;;;1.95;1.83;;;;;;;1.82;100.00;98513.13;4918946;29;20028;-88
2020/12/26 01:20:20;;;;;;;2.10;2.00;;;;;;;1.73;100.00;98499.09;4919044;29;20045;-89
2020/12/26 01:22:46;;;;;;;1.15;1.15;;;;;;;1.90;100.00;98520.97;4918947;29;20440;-88
2020/12/26 01:25:12;;;;;;;0.95;0.95;;;;;;;1.95;100.00;98514.38;4918889;29;20058;-87
2020/12/26 01:27:37;;;;;;;3.45;2.35;;;;;;;2.00;100.00;98509.31;4936140;29;20035;-87
2020/12/26 01:30:04;;;;;;;2.05;1.80;;;;;;;2.34;100.00;98500.88;4919100;29;20039;-88
2020/12/26 01:32:30;;;;;;;1.15;1.15;;;;;;;2.43;100.00;98493.09;4918709;29;20023;-88
2020/12/26 01:34:59;;;;;;;1.35;1.35;;;;;;;2.32;100.00;98471.25;4918805;29;20034;-87
2020/12/26 01:37:26;;;;;;;2.08;1.98;;;;;;;2.59;100.00;98481.81;4918750;29;20027;-89
2020/12/26 01:39:51;;;;;;;6.55;1.85;;;;;;;2.47;100.00;98472.06;4919026;29;20042;-87
2020/12/26 01:42:17;;;;;;;3.22;2.80;;;;;;;2.57;100.00;98492.31;4918782;29;20035;-87
2020/12/26 01:44:42;;;;;;;10.52;6.38;;;;;;;2.47;100.00;98493.88;4918819;29;20042;-86
2020/12/26 01:47:09;;;;;;;5.45;4.78;;;;;;;2.41;100.00;98500.88;4918743;29;20032;-87
2020/12/26 01:49:35;;;;;;;5.93;4.25;;;;;;;2.16;100.00;98470.84;4918868;29;20122;-88
2020/12/26 01:52:02;;;;;;;5.18;4.70;;;;;;;2.32;100.00;98486.84;4918794;29;20086;-88
2020/12/26 01:54:29;;;;;;;5.95;3.38;;;;;;;2.49;100.00;98494.25;4935539;29;20034;-88
2020/12/26 01:56:55;;;;;;;4.28;3.95;;;;;;;2.48;100.00;98457.25;4919009;29;20467;-87
2020/12/26 01:59:20;;;;;;;3.08;2.85;;;;;;;2.73;100.00;98495.44;4918736;29;20067;-88
2020/12/26 02:01:52;;;;;;;2.70;2.60;;;;;;;2.64;100.00;98504.03;4920728;29;20199;-87
2020/12/26 02:04:18;;;;;;;7.45;4.15;;;;;;;2.53;100.00;98491.56;4939194;29;20028;-87
2020/12/26 02:06:56;;;;;;;4.10;3.83;;;;;;;2.54;100.00;98482.97;4922168;29;20427;-88
2020/12/26 02:09:23;;;;;;;5.43;3.63;;;;;;;2.59;100.00;98474.41;4921974;29;20031;-87
2020/12/26 02:11:49;;;;;;;1.77;1.67;;;;;;;2.65;100.00;98483.75;4922349;29;20073;-87
2020/12/26 02:14:14;;;;;;;6.85;1.92;;;;;;;2.70;100.00;98479.88;4921953;29;20028;-87
2020/12/26 02:16:48;;;;;;;1.10;1.10;;;;;;;2.57;100.00;98451.41;4922053;29;20024;-87
2020/12/26 02:19:15;;;;;;;2.38;1.10;;;;;;;2.45;100.00;98431.56;4939254;29;20027;-86
2020/12/26 02:21:41;;;;;;;2.20;2.10;;;;;;;2.64;100.00;98463.13;4921863;29;20039;-86
2020/12/26 02:24:08;;;;;;;0.75;0.75;;;;;;;2.49;100.00;98449.84;4938828;29;20027;-87
2020/12/26 02:26:34;;;;;;;2.38;2.28;;;;;;;2.53;100.00;98442.47;4921839;29;20039;-86
2020/12/26 02:28:59;;;;;;;2.95;2.75;;;;;;;2.47;100.00;98456.47;4922059;29;20032;-85
2020/12/26 02:31:25;;;;;;;1.42;0.55;;;;;;;2.18;100.00;98441.25;4921956;29;20031;-87
2020/12/26 02:33:50;;;;;;;2.40;2.20;;;;;;;2.01;100.00;98453.66;4921752;29;20031;-86
2020/12/26 02:36:16;;;;;;;1.10;1.10;;;;;;;1.80;100.00;98471.91;4922507;29;20028;-87
2020/12/26 02:38:42;;;;;;;1.17;1.17;;;;;;;1.59;98.87;98472.59;4921660;29;20020;-87
2020/12/26 02:41:08;;;;;;;0.85;0.85;;;;;;;1.48;99.42;98469.81;4921868;29;20031;-91
2020/12/26 02:43:34;;;;;;;3.03;2.83;;;;;;;1.17;99.87;98440.50;4922205;29;20031;-92
2020/12/26 02:45:59;;;;;;;2.03;1.77;;;;;;;1.17;100.00;98454.09;4921583;29;20042;-89
2020/12/26 02:48:26;;;;;;;1.85;1.80;;;;;;;1.39;100.00;98471.31;4921611;29;20028;-90
2020/12/26 02:50:51;;;;;;;0.30;0.30;;;;;;;1.41;100.00;98466.28;4921564;29;20039;-89
2020/12/26 02:53:17;;;;;;;2.75;2.50;;;;;;;1.41;100.00;98464.34;4921455;29;20028;-89
2020/12/26 02:55:42;;;;;;;2.17;1.33;;;;;;;1.40;100.00;98453.81;4921842;29;20507;-89
2020/12/26 02:58:08;;;;;;;2.45;1.80;;;;;;;1.43;100.00;98458.53;4921487;29;20484;-89
2020/12/26 03:00:33;;;;;;;1.92;1.80;;;;;;;1.51;100.00;98463.59;4920991;29;20496;-88
2020/12/26 03:02:59;;;;;;;4.15;3.38;;;;;;;1.52;100.00;98457.00;4938106;29;20035;-89
2020/12/26 03:05:25;;;;;;;5.15;4.05;;;;;;;1.66;100.00;98460.94;4921431;29;20024;-89
2020/12/26 03:07:51;;;;;;;4.45;3.15;;;;;;;1.50;100.00;98425.88;4921177;29;20027;-89
2020/12/26 03:10:17;;;;;;;2.80;2.70;;;;;;;1.71;100.00;98449.69;4921092;29;20035;-89
2020/12/26 03:12:43;;;;;;;3.25;3.05;;;;;;;1.50;100.00;98398.66;4920515;29;20035;-88
2020/12/26 03:15:08;;;;;;;2.58;2.47;;;;;;;1.85;100.00;98447.00;4920989;29;20035;-88
2020/12/26 03:17:34;;;;;;;6.13;4.70;;;;;;;1.81;100.00;98447.00;4937850;29;20468;-86
2020/12/26 03:20:00;;;;;;;4.30;1.50;;;;;;;1.91;100.00;98453.66;4920951;29;20502;-88
2020/12/26 03:22:28;;;;;;;2.17;1.92;;;;;;;1.80;100.00;98448.19;4921419;29;20032;-89
2020/12/26 03:24:55;;;;;;;1.20;1.20;;;;;;;1.83;100.00;98463.72;4920906;29;20039;-89
2020/12/26 03:27:21;;;;;;;1.58;1.58;;;;;;;1.62;100.00;98478.06;4921304;29;20030;-89
2020/12/26 03:29:47;;;;;;;2.00;0.93;;;;;;;1.61;100.00;98490.13;4920814;29;20031;-89
2020/12/26 03:32:12;;;;;;;0.93;0.93;;;;;;;1.43;100.00;98475.63;4920842;29;20083;-88
2020/12/26 03:34:38;;;;;;;6.95;1.70;;;;;;;0.90;100.00;98422.84;4920745;29;20035;-89
2020/12/26 03:37:04;;;;;;;1.15;1.15;;;;;;;1.25;100.00;98471.25;4920709;29;20099;-88
2020/12/26 03:39:35;;;;;;;2.15;2.00;;;;;;;1.37;100.00;98481.81;4920559;29;20036;-88
2020/12/26 03:42:04;;;;;;;1.85;1.35;;;;;;;1.34;100.00;98469.75;4920264;29;20035;-88
2020/12/26 03:44:30;;;;;;;1.73;1.63;;;;;;;1.39;100.00;98463.94;4920928;29;20077;-88
2020/12/26 03:46:55;;;;;;;1.17;1.17;;;;;;;1.37;100.00;98466.28;4920319;29;20496;-89
2020/12/26 03:49:21;;;;;;;0.70;0.70;;;;;;;1.36;100.00;98464.69;4920435;29;20036;-89
2020/12/26 03:51:46;;;;;;;1.35;0.80;;;;;;;1.31;100.00;98454.19;4920250;29;20126;-89
2020/12/26 03:54:12;;;;;;;1.80;1.70;;;;;;;1.39;100.00;98472.09;4920235;29;20032;-89
2020/12/26 03:56:37;;;;;;;3.20;2.90;;;;;;;1.15;100.00;98475.44;4920215;29;20087;-88
2020/12/26 03:59:03;;;;;;;1.02;0.98;;;;;;;1.13;100.00;98480.50;4920142;29;20107;-89
2020/12/26 04:01:28;;;;;;;2.88;2.53;;;;;;;1.11;100.00;98480.88;4920042;29;20059;-89
2020/12/26 04:03:54;;;;;;;2.30;2.20;;;;;;;1.11;100.00;98471.94;4920023;29;20067;-89
2020/12/26 04:06:19;;;;;;;2.75;2.42;;;;;;;0.83;100.00;98461.66;4919971;29;20404;-88
2020/12/26 04:08:45;;;;;;;1.92;1.83;;;;;;;1.03;100.00;98473.81;4920078;29;20481;-89
2020/12/26 04:11:10;;;;;;;0.60;0.60;;;;;;;1.05;100.00;98474.22;4919846;29;20043;-88
2020/12/26 04:13:35;;;;;;;0.77;0.77;;;;;;;0.95;100.00;98468.72;4920104;29;20039;-91
2020/12/26 04:16:01;;;;;;;1.30;0.95;;;;;;;1.17;100.00;98479.38;4919562;29;20028;-90
2020/12/26 04:18:26;;;;;;;3.17;2.30;;;;;;;1.11;100.00;98482.81;4919709;29;20091;-90
2020/12/26 04:20:52;;;;;;;2.20;1.92;;;;;;;1.15;100.00;98468.06;4919829;29;20123;-90
2020/12/26 04:23:17;;;;;;;3.40;2.50;;;;;;;1.24;100.00;98473.19;4919692;29;20622;-89
2020/12/26 04:25:42;;;;;;;1.92;1.75;;;;;;;1.32;100.00;98450.31;4918827;29;20035;-87
2020/12/26 04:28:08;;;;;;;2.40;2.30;;;;;;;1.53;100.00;98450.41;4919581;29;20020;-88
2020/12/26 04:30:33;;;;;;;2.88;2.28;;;;;;;1.42;100.00;98435.19;4919644;29;20035;-87
2020/12/26 04:32:58;;;;;;;2.15;1.95;;;;;;;1.27;100.00;98439.00;4920006;29;20034;-87
2020/12/26 04:35:24;;;;;;;1.70;1.67;;;;;;;1.63;100.00;98455.09;4919698;29;20473;-86
2020/12/26 04:37:50;;;;;;;0.77;0.77;;;;;;;1.41;100.00;98418.06;4919390;29;20032;-87
2020/12/26 04:40:16;;;;;;;0.40;0.40;;;;;;;1.68;100.00;98458.63;4919487;29;20031;-88
2020/12/26 04:42:45;;;;;;;1.52;1.52;;;;;;;1.68;100.00;98475.75;4919445;29;20183;-87
2020/12/26 04:45:11;;;;;;;2.60;2.50;;;;;;;1.73;100.00;98469.16;4919116;29;20079;-87
2020/12/26 04:47:43;;;;;;;1.88;1.77;;;;;;;1.68;100.00;98474.97;4936070;29;20091;-88
2020/12/26 04:50:08;;;;;;;1.05;1.05;;;;;;;1.38;100.00;98450.72;4919262;29;20036;-87
2020/12/26 04:52:36;;;;;;;2.10;2.00;;;;;;;1.58;100.00;98474.53;4919280;29;20042;-88
2020/12/26 04:55:03;;;;;;;1.50;1.42;;;;;;;1.60;100.00;98477.66;4919443;29;20118;-87
2020/12/26 04:57:33;;;;;;;1.55;1.45;;;;;;;1.41;100.00;98449.94;4919396;29;20500;-88
2020/12/26 05:00:01;;;;;;;0.75;0.75;;;;;;;1.67;100.00;98479.63;4919517;29;20122;-87
2020/12/26 05:02:41;;;;;;;1.97;1.87;;;;;;;1.71;100.00;98482.34;4936598;29;20496;-88
2020/12/26 05:05:08;;;;;;;1.35;1.33;;;;;;;1.70;100.00;98467.19;4919358;29;20040;-88
2020/12/26 05:07:35;;;;;;;0.73;0.73;;;;;;;1.80;100.00;98480.06;4918963;29;20231;-89
2020/12/26 05:10:02;;;;;;;2.60;2.38;;;;;;;1.76;100.00;98481.97;4919513;29;20031;-89
2020/12/26 05:12:27;;;;;;;0.60;0.60;;;;;;;1.72;100.00;98489.38;4919049;29;20031;-89
2020/12/26 05:14:53;;;;;;;0.63;0.63;;;;;;;1.71;100.00;98498.69;4935867;29;20040;-88
2020/12/26 05:17:20;;;;;;;1.98;1.88;;;;;;;1.68;100.00;98483.13;4918994;29;20023;-88
2020/12/26 05:19:48;;;;;;;2.03;1.77;;;;;;;1.77;100.00;98489.00;4919223;29;20038;-87
2020/12/26 05:22:17;;;;;;;1.42;1.35;;;;;;;1.53;100.00;98446.88;4919030;29;20042;-89
2020/12/26 05:24:43;;;;;;;2.60;1.70;;;;;;;1.73;100.00;98488.22;4918902;29;20094;-90
2020/12/26 05:27:08;;;;;;;0.80;0.80;;;;;;;1.73;100.00;98482.78;4919171;29;20436;-90
2020/12/26 05:29:37;;;;;;;0.98;0.98;;;;;;;1.85;100.00;98501.50;4918820;29;20039;-87
2020/12/26 05:32:13;;;;;;;2.33;1.92;;;;;;;1.75;100.00;98469.56;4918848;29;20023;-89
2020/12/26 05:34:38;;;;;;;2.70;2.45;;;;;;;1.73;100.00;98444.63;4919279;29;20035;-88
2020/12/26 05:37:05;;;;;;;0.45;0.45;;;;;;;2.00;100.00;98482.06;4921570;29;20031;-88
2020/12/26 05:39:36;;;;;;;3.05;1.75;;;;;;;2.07;100.00;98481.31;4922457;29;20038;-88
2020/12/26 05:42:02;;;;;;;1.20;1.20;;;;;;;2.09;100.00;98486.41;4923052;29;20034;-86
2020/12/26 05:44:30;;;;;;;1.52;1.42;;;;;;;2.20;100.00;98492.66;4922439;29;20035;-88
2020/12/26 05:46:56;;;;;;;;;;;;;;;2.27;100.00;98506.31;4922925;29;20385;-87
2020/12/26 05:49:24;;;;;;;0.70;0.70;;;;;;;1.91;100.00;98473.50;4922362;29;19994;-89
2020/12/26 05:51:52;;;;;;;0.80;0.80;;;;;;;2.04;100.00;98515.59;4922657;29;20469;-87
2020/12/26 05:54:18;;;;;;;2.25;2.15;;;;;;;2.07;100.00;98522.19;4922137;29;20032;-87
2020/12/26 05:56:44;;;;;;;3.17;2.97;;;;;;;2.05;100.00;98522.56;4939146;29;20074;-87
2020/12/26 05:59:25;;;;;;;1.17;1.17;;;;;;;2.02;100.00;98507.00;4922210;29;20055;-88
2020/12/26 06:01:51;;;;;;;3.35;3.13;;;;;;;1.88;100.00;98523.28;4921888;29;20060;-88
2020/12/26 06:04:20;;;;;;;1.58;1.15;;;;;;;1.83;99.20;98531.81;4922197;29;20050;-88
2020/12/26 06:06:51;;;;;;;2.38;2.03;;;;;;;1.70;99.63;98533.31;4922056;29;20024;-88
2020/12/26 06:09:20;;;;;;;1.25;1.23;;;;;;;1.65;99.77;98530.97;4922567;29;20062;-88
2020/12/26 06:11:49;;;;;;;2.65;2.53;;;;;;;1.51;100.00;98531.66;4922028;29;20035;-88
2020/12/26 06:14:18;;;;;;;1.98;1.90;;;;;;;1.50;100.00;98529.34;4921899;29;20043;-87
2020/12/26 06:16:54;;;;;;;5.15;4.88;;;;;;;1.45;100.00;98526.94;4921824;29;20495;-86
2020/12/26 06:19:27;;;;;;;9.00;4.40;;;;;;;1.51;100.00;98531.66;4922242;29;20032;-87
2020/12/26 06:21:53;;;;;;;18.88;5.15;;;;;;;1.33;100.00;98516.38;4922406;29;20568;-87
2020/12/26 06:24:19;;;;;;;4.15;3.92;;;;;;;1.60;100.00;98531.31;4921581;29;20115;-88
2020/12/26 06:26:49;;;;;;;10.60;9.52;;;;;;;1.54;100.00;98511.06;4938862;29;20027;-87
2020/12/26 06:29:18;;;;;;;5.65;3.55;;;;;;;1.43;100.00;98496.63;4938560;29;20038;-88
2020/12/26 06:31:45;;;;;;;4.85;4.50;;;;;;;1.75;100.00;98546.56;4921725;29;20123;-87
2020/12/26 06:34:13;;;;;;;3.20;2.70;;;;;;;1.57;99.64;98543.75;4921552;29;20039;-87
2020/12/26 06:36:40;;;;;;;6.30;4.73;;;;;;;1.63;100.00;98549.63;4922129;29;20066;-88
2020/12/26 06:39:31;;;;;;;5.32;4.80;;;;;;;1.67;100.00;98547.72;4938372;29;20034;-88
2020/12/26 06:42:18;;;;;;;2.22;2.03;;;;;;;1.73;100.00;98548.13;4921359;29;20608;-88
2020/12/26 06:44:47;;;;;;;1.73;1.63;;;;;;;1.85;100.00;98561.41;4922186;29;20516;-90
2020/12/26 06:47:36;;;;;;;2.33;2.13;;;;;;;1.80;100.00;98561.78;4920963;29;20055;-89
2020/12/26 06:50:34;;;;;;;8.23;3.38;;;;;;;1.98;100.00;98558.00;4921737;29;20086;-89
2020/12/26 06:53:01;;;;;;;3.65;3.20;;;;;;;2.03;100.00;98551.38;4910347;29;20036;-89
2020/12/26 06:55:44;;;;;;;8.55;7.70;;;;;;;2.07;100.00;98559.56;4922465;29;20495;-89
2020/12/26 06:58:23;;;;;;;7.55;4.45;;;;;;;2.02;100.00;98534.25;4922050;29;20039;-88
2020/12/26 07:00:48;;;;;;;6.72;4.35;;;;;;;2.35;100.00;98563.16;4921522;29;20110;-88
2020/12/26 07:03:25;;;;;;;5.10;4.78;;;;;;;2.57;100.00;98569.47;4921912;29;20042;-90
2020/12/26 07:05:52;;;;;;;4.38;4.07;;;;;;;2.56;99.53;98554.28;4921551;29;20036;-91
2020/12/26 07:08:28;;;;;;;5.22;4.88;;;;;;;2.63;99.34;98565.19;4937720;29;20092;-88
2020/12/26 07:10:55;;;;;;;10.70;7.95;;;;;;;2.83;99.04;98560.91;4921280;29;20070;-89
2020/12/26 07:13:50;;;;;;;6.07;5.63;;;;;;;2.97;97.59;98560.16;4921508;29;20040;-89
2020/12/26 07:16:46;;;;;;;6.93;6.28;;;;;;;2.89;96.99;98576.94;4920840;29;20126;-91
2020/12/26 07:19:31;;;;;;;7.25;5.85;;;;;;;2.88;97.06;98557.06;4920888;29;20484;-90
2020/12/26 07:21:57;;;;;;;7.18;5.78;;;;;;;2.75;96.74;98558.59;4921342;29;20043;-93
2020/12/26 07:24:30;;;;;;;12.13;10.85;;;;;;;2.91;97.25;98564.44;4920729;29;20031;-88
2020/12/26 07:27:26;;;;;;;6.95;6.28;;;;;;;2.96;96.51;98571.47;4921426;29;20469;-88
2020/12/26 07:30:13;;;;;;;6.82;5.68;;;;;;;3.09;96.72;98567.19;4919869;29;20119;-96
2020/12/26 07:32:39;;;;;;;5.38;5.00;;;;;;;3.01;96.32;98539.13;4920764;29;20032;-92
2020/12/26 07:35:17;;;;;;;10.75;9.18;;;;;;;2.91;97.41;98567.16;4937290;29;20027;-91
2020/12/26 07:38:04;;;;;;;17.93;16.27;;;;;;;3.04;96.36;98530.16;4920147;29;20024;-91
2020/12/26 07:40:33;;;;;;;15.65;14.25;;;;;;;3.21;95.96;98540.28;4919440;29;20043;-91
2020/12/26 07:43:11;;;;;;;28.67;15.50;;;;;;;3.03;94.47;98514.94;4920240;29;20031;-91
2020/12/26 07:45:38;;;;;;;;;;;;;;;3.33;94.27;98566.41;4920254;29;20122;-90
2020/12/26 07:48:05;;;;;;;9.35;8.55;;;;;;;3.13;94.48;98566.03;4919913;29;20009;-90
2020/12/26 07:50:36;;;;;;;10.77;9.82;;;;;;;2.99;96.00;98551.59;4920067;29;20031;-89
2020/12/26 07:53:06;;;;;;;19.13;10.60;;;;;;;3.45;95.58;98589.78;4919979;29;20040;-91
2020/12/26 07:55:32;;;;;;;10.98;10.02;;;;;;;3.44;94.97;98572.63;4919928;29;20028;-94
2020/12/26 07:58:10;;;;;;;23.75;16.10;;;;;;;3.62;94.34;98567.91;4920274;29;20459;-92
2020/12/26 08:00:38;;;;;;;14.27;10.48;;;;;;;3.57;93.38;98576.50;4922055;29;20048;-96
2020/12/26 08:03:05;;;;;;;6.30;5.77;;;;;;;3.19;94.58;98574.63;4923687;29;20047;-96
2020/12/26 08:05:35;;;;;;;24.25;4.60;;;;;;;3.14;95.26;98583.94;4928726;29;20027;-96
2020/12/26 08:08:12;;;;;;;1.38;1.30;;;;;;;3.27;96.05;98584.34;4930070;29;20095;-96
2020/12/26 08:10:38;;;;;;;4.03;3.78;;;;;;;3.42;95.89;98590.59;4937168;29;20091;-96
2020/12/26 08:13:03;;;;;;;4.07;3.80;;;;;;;3.53;95.75;98572.22;4937234;29;20042;-95
2020/12/26 08:15:31;;;;;;;7.30;6.38;;;;;;;3.50;95.73;98589.38;4933855;29;20110;-88
2020/12/26 08:18:01;;;;;;;7.50;6.97;;;;;;;3.78;94.97;98588.59;4924769;29;20043;-94
2020/12/26 08:20:29;;;;;;;5.35;1.92;;;;;;;3.80;94.60;98575.31;4919319;29;20374;-93
2020/12/26 08:22:55;;;;;;;;;;;;;;;4.05;93.59;98571.31;4918318;29;20024;-96
2020/12/26 08:25:24;;;;;;;5.68;4.43;;;;;;;4.00;93.22;98565.47;4917816;29;19917;-94
2020/12/26 08:27:49;;;;;;;12.85;8.05;;;;;;;3.81;92.28;98555.78;4917888;29;20404;-95
2020/12/26 08:30:19;;;;;;;6.60;2.88;;;;;;;4.10;92.99;98584.56;4919852;29;20095;-96
2020/12/26 08:33:07;;;;;;;9.38;4.50;;;;;;;4.10;92.31;98584.56;4918766;29;20035;-94
2020/12/26 08:35:35;;;;;;;12.32;5.45;;;;;;;4.04;92.38;98572.50;4920088;29;20544;-96
2020/12/26 08:38:13;;;;;;;5.07;4.55;;;;;;;4.10;92.49;98578.31;4919607;29;20087;-96
2020/12/26 08:40:42;;;;;;;4.65;4.40;;;;;;;4.09;92.26;98561.16;4919558;29;20067;-95
2020/12/26 08:43:13;;;;;;;;;;;;;;;3.88;93.41;98571.38;4919883;29;20035;-96
2020/12/26 08:45:39;;;;;;;3.55;2.65;;;;;;;3.62;94.34;98526.16;4919264;29;19910;-96
2020/12/26 08:48:19;;;;;;;1.17;1.17;;;;;;;3.35;94.47;98484.09;4919225;29;20032;-96
2020/12/26 08:50:58;;;;;;;4.85;4.45;;;;;;;3.80;95.34;98531.59;4919721;29;20083;-96
2020/12/26 08:53:24;;;;;;;4.57;4.28;;;;;;;3.60;93.94;98463.75;4919253;29;20508;-95
2020/12/26 08:55:54;;;;;;;5.03;4.00;;;;;;;4.02;93.45;98517.44;4919506;29;20043;-96
2020/12/26 08:58:30;;;;;;;4.05;3.13;;;;;;;4.28;93.29;98559.13;4919671;29;20023;-95
2020/12/26 09:01:01;;;;;;;3.65;3.25;;;;;;;4.61;92.56;98560.50;4919694;29;20051;-96
2020/12/26 09:03:32;;;;;;;3.72;3.53;;;;;;;4.44;92.96;98534.81;4919404;29;20028;-95
2020/12/26 09:05:59;;;;;;;9.27;4.63;;;;;;;4.62;92.57;98546.44;4919625;29;20487;-95
2020/12/26 09:08:35;;;;;;;4.63;4.30;;;;;;;4.84;92.07;98538.84;4936107;29;20036;-96
2020/12/26 09:11:08;;;;;;;2.45;2.30;;;;;;;4.89;91.89;98561.09;4918645;29;20037;-96
2020/12/26 09:13:43;;;;;;;7.60;6.88;;;;;;;4.67;91.52;98496.75;4919338;29;20035;-93
2020/12/26 09:16:13;;;;;;;12.13;8.27;;;;;;;5.07;90.88;98525.38;4919013;29;20412;-93
2020/12/26 09:18:47;;;;;;;13.25;6.25;;;;;;;5.57;89.12;98566.03;4918901;29;20028;-95
2020/12/26 09:21:24;;;;;;;10.23;5.97;;;;;;;5.59;89.43;98537.06;4919364;29;20035;-92
2020/12/26 09:23:51;;;;;;;14.50;6.32;;;;;;;5.84;88.58;98536.78;4919035;29;20028;-93
2020/12/26 09:26:22;;;;;;;13.93;8.90;;;;;;;6.04;87.41;98545.19;4918859;29;20039;-92
2020/12/26 09:28:49;;;;;;;15.10;10.75;;;;;;;6.05;87.34;98520.09;4918398;29;20496;-92
2020/12/26 09:31:16;;;;;;;12.48;10.15;;;;;;;6.38;86.48;98543.22;4918931;29;20039;-92
2020/12/26 09:33:42;;;;;;;13.38;11.95;;;;;;;6.54;86.01;98548.88;4918697;29;20122;-91
2020/12/26 09:36:15;;;;;;;9.90;9.15;;;;;;;6.57;85.93;98536.25;4919022;29;20114;-92
2020/12/26 09:38:41;;;;;;;12.50;10.10;;;;;;;6.81;85.46;98548.13;4918764;29;20493;-90
2020/12/26 09:41:17;;;;;;;10.38;3.88;;;;;;;6.92;84.02;98543.22;4919079;29;20114;-91
2020/12/26 09:43:45;;;;;;;9.75;4.38;;;;;;;7.01;84.35;98537.97;4919737;29;20016;-80
2020/12/26 09:46:11;;;;;;;21.08;4.78;;;;;;;7.01;84.66;98516.00;4918632;29;20036;-81
2020/12/26 09:48:37;;;;;;;4.13;3.83;;;;;;;7.44;83.82;98546.28;4918548;29;20127;-82
2020/12/26 09:51:04;;;;;;;4.80;4.40;;;;;;;7.57;82.70;98528.00;4918550;29;20035;-80
2020/12/26 09:53:29;;;;;;;2.25;2.15;;;;;;;7.71;81.77;98527.75;4918242;29;20055;-83
2020/12/26 09:55:55;;;;;;;4.25;3.85;;;;;;;8.11;81.17;98536.00;4918342;29;20519;-82
2020/12/26 09:58:20;;;;;;;11.05;4.13;;;;;;;7.83;82.03;98536.56;4918402;29;20039;-80
2020/12/26 10:00:46;;;;;;;7.60;5.72;;;;;;;8.07;80.17;98525.09;4917940;29;20051;-80
2020/12/26 10:03:11;;;;;;;5.45;4.50;;;;;;;8.22;80.76;98509.03;4918629;29;20046;-80
2020/12/26 10:05:37;;;;;;;8.50;2.63;;;;;;;8.42;80.57;98520.84;4918392;29;20043;-81
2020/12/26 10:08:02;;;;;;;3.25;2.75;;;;;;;8.43;79.17;98507.84;4918883;29;20032;-81
2020/12/26 10:10:28;;;;;;;5.03;4.35;;;;;;;8.57;80.10;98522.06;4918450;29;20035;-82
2020/12/26 10:12:53;;;;;;;2.72;2.55;;;;;;;8.70;78.66;98518.66;4918484;29;20028;-82
2020/12/26 10:15:19;;;;;;;5.82;3.78;;;;;;;8.63;78.80;98518.81;4918451;29;20412;-82
2020/12/26 10:17:45;;;;;;;11.38;6.15;;;;;;;8.89;77.85;98523.31;4918304;29;20469;-81
2020/12/26 10:20:10;;;;;;;5.45;4.97;;;;;;;8.90;77.52;98525.66;4918932;29;20064;-81
2020/12/26 10:22:36;;;;;;;14.02;6.55;;;;;;;8.36;78.82;98521.78;4918985;29;20425;-81
2020/12/26 10:25:02;;;;;;;8.25;5.72;;;;;;;8.31;79.78;98489.25;4921786;29;20036;-82
2020/12/26 10:27:27;;;;;;;7.85;6.40;;;;;;;7.79;82.43;98525.63;4938518;29;20031;-82
2020/12/26 10:29:53;;;;;;;11.60;10.20;;;;;;;8.05;81.59;98513.72;4921766;29;20031;-83
2020/12/26 10:32:18;;;;;;;11.15;9.13;;;;;;;8.34;81.38;98529.66;4921825;29;20148;-88
2020/12/26 10:34:44;;;;;;;10.70;8.25;;;;;;;8.29;81.60;98532.91;4921300;29;20043;-82
2020/12/26 10:37:12;;;;;;;6.13;5.38;;;;;;;8.40;81.11;98544.47;4921164;29;20034;-83
2020/12/26 10:39:37;;;;;;;;;;;;;;;8.68;80.47;98538.34;4922428;29;20040;-85
2020/12/26 10:42:03;;;;;;;2.70;2.30;;;;;;;8.47;81.78;98525.06;4924168;29;20343;-88
2020/12/26 10:44:28;;;;;;;7.15;4.95;;;;;;;8.26;81.99;98522.75;4924006;29;20059;-87
2020/12/26 10:46:54;;;;;;;5.28;3.88;;;;;;;8.58;81.31;98533.88;4923541;29;20039;-84
2020/12/26 10:49:19;;;;;;;4.93;3.40;;;;;;;8.77;80.78;98530.28;4921229;29;20028;-85
2020/12/26 10:51:48;;;;;;;6.90;6.20;;;;;;;8.80;80.43;98523.91;4921987;29;20032;-89
2020/12/26 10:54:14;;;;;;;3.97;3.65;;;;;;;8.97;79.87;98525.50;4922625;29;20039;-88
2020/12/26 10:56:45;;;;;;;4.93;4.10;;;;;;;8.81;80.18;98489.66;4930176;29;20062;-89
2020/12/26 10:59:10;;;;;;;2.47;2.22;;;;;;;8.63;78.66;98469.25;4928901;29;20399;-90
2020/12/26 11:01:36;;;;;;;1.88;1.77;;;;;;;8.18;80.18;98437.59;4922173;29;20045;-91
2020/12/26 11:04:01;;;;;;;3.58;2.85;;;;;;;7.89;81.35;98420.13;4914517;29;20032;-93
2020/12/26 11:06:27;;;;;;;3.25;2.63;;;;;;;8.13;82.20;98492.34;4913236;29;20095;-90
2020/12/26 11:08:53;;;;;;;3.45;3.15;;;;;;;7.83;82.01;98401.81;4910935;29;20119;-89
2020/12/26 11:11:18;;;;;;;2.78;2.58;;;;;;;8.67;81.64;98503.78;4906318;29;20035;-88
2020/12/26 11:13:44;;;;;;;2.08;1.98;;;;;;;8.42;81.44;98454.78;4904775;29;20036;-86
2020/12/26 11:16:16;;;;;;;2.30;1.85;;;;;;;8.32;81.82;98433.00;4906894;29;20479;-88
2020/12/26 11:18:44;;;;;;;2.85;2.65;;;;;;;8.36;81.17;98455.72;4907648;29;20575;-89
2020/12/26 11:21:15;;;;;;;11.30;6.37;;;;;;;8.00;81.46;98431.69;4904629;29;20028;-89
2020/12/26 11:23:40;;;;;;;3.58;3.38;;;;;;;7.92;81.16;98394.53;4906530;29;20028;-88
2020/12/26 11:26:06;;;;;;;4.60;4.35;;;;;;;8.33;81.22;98440.03;4906056;29;20043;-87
2020/12/26 11:28:32;;;;;;;6.22;5.28;;;;;;;8.86;81.53;98500.16;4903506;29;20083;-89
2020/12/26 11:30:57;;;;;;;6.10;5.63;;;;;;;8.42;80.37;98429.22;4908939;29;20032;-89
2020/12/26 11:33:23;;;;;;;12.73;7.13;;;;;;;8.67;80.91;98480.97;4905876;29;20436;-90
2020/12/26 11:35:49;;;;;;;12.65;7.45;;;;;;;8.92;80.46;98490.16;4905283;29;20032;-88
2020/12/26 11:38:14;;;;;;;3.55;3.25;;;;;;;8.89;81.26;98509.56;4902670;29;20035;-86
2020/12/26 11:40:39;;;;;;;11.35;5.53;;;;;;;8.96;80.74;98493.63;4901778;29;20051;-86